Terminal Aerodrome Forecast
Issued by NWS Sioux Falls, SD

Home | Current Version | Previous Version | Graphics & Text | Print | Product List | Glossary Off
Versions: 1 2 3 4 5 6 7 8 9 10 11 12 13 14 15

794
FTUS43 KFSD 300520
TAFHON
TAF
KHON 300520Z 3006/3106 15005KT P6SM VCTS SCT050CB BKN150
     FM300800 09007KT P6SM SCT250
     FM301500 12010KT P6SM SCT045 SCT250
     FM302200 07006KT P6SM SCT250=

USA.gov is the U.S. government's official web portal to all federal, state and local government web resources and services.